createdAt,value
2023-02-02T00:00:41.916Z,1003.7
2023-02-02T00:01:41.924Z,1003.7
2023-02-02T00:02:42.020Z,1003.7
2023-02-02T00:03:42.006Z,1003.8
2023-02-02T00:04:41.950Z,1003.7
2023-02-02T00:05:41.955Z,1003.7
2023-02-02T00:06:41.970Z,1004.0
2023-02-02T00:07:41.984Z,1003.9
2023-02-02T00:08:42.000Z,1004.0
2023-02-02T00:09:41.996Z,1003.7
2023-02-02T00:10:42.004Z,1003.9
2023-02-02T00:11:42.015Z,1003.8
2023-02-02T00:12:42.026Z,1003.7
2023-02-02T00:13:42.037Z,1003.8
2023-02-02T00:14:42.035Z,1003.9
2023-02-02T00:15:42.048Z,1003.7
2023-02-02T00:16:42.066Z,1003.9
2023-02-02T00:17:42.070Z,1003.8
2023-02-02T00:18:42.072Z,1003.8
2023-02-02T00:19:42.077Z,1004.0
2023-02-02T00:20:42.089Z,1003.9
2023-02-02T00:21:42.099Z,1003.9
2023-02-02T00:22:42.099Z,1003.9
2023-02-02T00:23:42.112Z,1004.0
2023-02-02T00:24:42.111Z,1003.8
2023-02-02T00:25:42.145Z,1004.0
2023-02-02T00:26:42.264Z,1004.2
2023-02-02T00:27:42.135Z,1004.1
2023-02-02T00:28:42.143Z,1004.1
2023-02-02T00:29:42.144Z,1004.2
2023-02-02T00:30:42.207Z,1004.0
2023-02-02T00:31:42.272Z,1004.0
2023-02-02T00:32:42.181Z,1004.0
2023-02-02T00:33:42.177Z,1004.0
2023-02-02T00:34:42.189Z,1004.0
2023-02-02T00:35:42.190Z,1004.0
2023-02-02T00:36:42.201Z,1004.1
2023-02-02T00:37:42.226Z,1004.1
2023-02-02T00:38:42.239Z,1004.2
2023-02-02T00:39:42.220Z,1004.1
2023-02-02T00:40:42.257Z,1004.2
2023-02-02T00:41:42.261Z,1004.1
2023-02-02T00:42:42.243Z,1004.2
2023-02-02T00:43:42.249Z,1004.2
2023-02-02T00:44:42.266Z,1004.3
2023-02-02T00:45:42.312Z,1004.0
2023-02-02T00:46:42.269Z,1004.3
2023-02-02T00:47:42.306Z,1004.2
2023-02-02T00:48:42.308Z,1004.2
2023-02-02T00:49:42.299Z,1004.3
2023-02-02T00:50:42.306Z,1004.2
2023-02-02T00:51:42.317Z,1004.2
2023-02-02T00:52:42.315Z,1004.4
2023-02-02T00:53:42.323Z,1004.2
2023-02-02T00:54:42.380Z,1004.2
2023-02-02T00:55:42.335Z,1004.3
2023-02-02T00:56:42.347Z,1004.5
2023-02-02T00:57:42.345Z,1004.4
2023-02-02T00:58:42.351Z,1004.3
2023-02-02T00:59:42.361Z,1004.4
2023-02-02T01:00:42.470Z,1004.5
2023-02-02T01:01:42.372Z,1004.5
2023-02-02T01:02:42.380Z,1004.5
2023-02-02T01:03:42.398Z,1004.5
2023-02-02T01:04:42.409Z,1004.5
2023-02-02T01:05:42.399Z,1004.5
2023-02-02T01:06:42.569Z,1004.6
2023-02-02T01:07:42.420Z,1004.6
2023-02-02T01:08:42.423Z,1004.5
2023-02-02T01:09:42.431Z,1004.6
2023-02-02T01:10:42.435Z,1004.5
2023-02-02T01:11:42.452Z,1004.8
2023-02-02T01:12:42.453Z,1005.0
2023-02-02T01:13:42.459Z,1004.7
2023-02-02T01:14:42.464Z,1004.7
2023-02-02T01:15:42.488Z,1004.6
2023-02-02T01:33:42.954Z,1005.3
2023-02-02T01:34:42.613Z,1005.0
2023-02-02T01:35:42.630Z,1005.1
2023-02-02T01:36:42.647Z,1005.2
2023-02-02T01:37:42.636Z,1005.2
2023-02-02T01:38:42.647Z,1005.3
2023-02-02T01:39:42.654Z,1005.3
2023-02-02T01:40:42.670Z,1005.3
2023-02-02T01:41:42.676Z,1005.2
2023-02-02T01:42:42.690Z,1005.4
2023-02-02T01:43:42.689Z,1005.3
2023-02-02T01:44:42.705Z,1005.2
2023-02-02T01:45:42.760Z,1005.3
2023-02-02T01:46:42.724Z,1005.5
2023-02-02T01:47:42.735Z,1005.5
2023-02-02T01:48:42.731Z,1005.5
2023-02-02T01:49:42.741Z,1005.6
2023-02-02T01:50:42.753Z,1005.7
2023-02-02T01:51:42.775Z,1005.5
2023-02-02T01:52:42.774Z,1005.5
2023-02-02T01:53:42.786Z,1005.7
2023-02-02T01:54:42.778Z,1005.7
2023-02-02T01:55:42.803Z,1005.6
2023-02-02T01:56:42.811Z,1005.6
2023-02-02T01:57:42.815Z,1005.5
2023-02-02T01:58:42.821Z,1005.5
2023-02-02T01:59:42.815Z,1005.7
2023-02-02T02:00:42.837Z,1005.7
2023-02-02T02:01:42.839Z,1005.5
2023-02-02T02:02:42.927Z,1005.5
2023-02-02T02:03:42.854Z,1005.5
2023-02-02T02:04:42.863Z,1005.5
2023-02-02T02:05:42.876Z,1005.6
2023-02-02T02:06:42.876Z,1005.6
2023-02-02T02:07:42.889Z,1005.5
2023-02-02T02:08:42.890Z,1005.5
2023-02-02T02:09:42.897Z,1005.6
2023-02-02T02:10:42.983Z,1005.6
2023-02-02T02:11:42.929Z,1005.6
2023-02-02T02:12:42.925Z,1005.7
2023-02-02T02:13:42.939Z,1005.7
2023-02-02T02:14:42.941Z,1005.7
2023-02-02T02:15:42.960Z,1005.7
2023-02-02T02:16:43.125Z,1005.7
2023-02-02T02:17:42.980Z,1005.6
2023-02-02T02:18:42.984Z,1005.8
2023-02-02T02:19:43.235Z,1005.7
2023-02-02T02:20:43.007Z,1005.7
2023-02-02T02:21:43.016Z,1005.8
2023-02-02T02:22:43.018Z,1005.7
2023-02-02T02:23:43.036Z,1005.7
2023-02-02T02:24:43.031Z,1005.9
2023-02-02T02:25:43.040Z,1005.8
2023-02-02T02:26:43.126Z,1005.7
2023-02-02T02:27:43.054Z,1005.7
2023-02-02T02:28:43.061Z,1005.8
2023-02-02T02:29:43.069Z,1006.0
2023-02-02T02:30:43.291Z,1005.9
2023-02-02T02:31:43.270Z,1005.9
2023-02-02T02:32:43.104Z,1005.9
2023-02-02T02:33:43.095Z,1005.9
2023-02-02T02:34:43.120Z,1006.0
2023-02-02T02:35:43.108Z,1006.0
2023-02-02T02:36:43.115Z,1006.0
2023-02-02T02:37:43.135Z,1006.2
2023-02-02T02:38:43.169Z,1005.9
2023-02-02T02:39:43.142Z,1006.0
2023-02-02T02:40:43.155Z,1006.0
2023-02-02T02:41:43.169Z,1005.9
2023-02-02T02:42:43.167Z,1005.9
2023-02-02T02:43:43.178Z,1006.0
2023-02-02T02:44:43.179Z,1006.1
2023-02-02T02:45:43.189Z,1006.0
2023-02-02T02:46:43.195Z,1006.0
2023-02-02T02:47:43.206Z,1006.0
2023-02-02T02:48:43.214Z,1006.1
2023-02-02T02:49:43.218Z,1006.1
2023-02-02T02:50:43.229Z,1006.1
2023-02-02T02:51:43.245Z,1006.2
2023-02-02T02:52:43.260Z,1006.3
2023-02-02T02:53:43.254Z,1006.2
2023-02-02T02:54:43.269Z,1006.2
2023-02-02T02:55:43.260Z,1006.3
2023-02-02T02:56:43.273Z,1006.2
2023-02-02T02:57:43.281Z,1006.2
2023-02-02T02:58:43.291Z,1006.2
2023-02-02T02:59:43.301Z,1006.3
2023-02-02T03:00:43.316Z,1006.3
2023-02-02T03:01:43.445Z,1006.2
2023-02-02T03:02:43.459Z,1006.3
2023-02-02T03:03:43.340Z,1006.2
2023-02-02T03:04:43.356Z,1006.3
2023-02-02T03:05:43.360Z,1006.5
2023-02-02T03:06:43.376Z,1006.3
2023-02-02T03:07:43.382Z,1006.3
2023-02-02T03:08:43.376Z,1006.2
2023-02-02T03:09:43.383Z,1006.4
2023-02-02T03:10:43.402Z,1006.5
2023-02-02T03:11:43.403Z,1006.4
2023-02-02T03:12:43.418Z,1006.4
2023-02-02T03:13:43.430Z,1006.3
2023-02-02T03:14:43.427Z,1006.4
2023-02-02T03:15:43.540Z,1006.6
2023-02-02T03:16:43.442Z,1006.6
2023-02-02T03:17:43.449Z,1006.4
2023-02-02T03:18:43.456Z,1006.3
2023-02-02T03:19:43.460Z,1006.4
2023-02-02T03:20:43.482Z,1006.5
2023-02-02T03:21:43.485Z,1006.5
2023-02-02T03:22:43.488Z,1006.4
2023-02-02T03:23:43.501Z,1006.5
2023-02-02T03:24:43.497Z,1006.5
2023-02-02T03:25:43.519Z,1006.5
2023-02-02T03:26:43.589Z,1006.6
2023-02-02T03:27:43.529Z,1006.6
2023-02-02T03:28:43.560Z,1006.6
2023-02-02T03:29:43.540Z,1006.5
2023-02-02T03:30:43.634Z,1006.5
2023-02-02T03:31:43.640Z,1006.6
2023-02-02T03:32:43.564Z,1006.6
2023-02-02T03:33:43.564Z,1006.6
2023-02-02T03:34:43.581Z,1006.6
2023-02-02T03:35:43.582Z,1006.6
2023-02-02T03:36:43.588Z,1006.7
2023-02-02T03:37:43.606Z,1006.7
2023-02-02T03:38:43.604Z,1006.7
2023-02-02T03:39:43.616Z,1006.7
2023-02-02T03:40:43.621Z,1006.7
2023-02-02T03:41:43.626Z,1006.7
2023-02-02T03:42:43.635Z,1006.9
2023-02-02T03:43:43.681Z,1006.7
2023-02-02T03:44:43.658Z,1006.7
2023-02-02T03:45:43.668Z,1006.7
2023-02-02T03:46:43.749Z,1006.9
2023-02-02T03:47:43.686Z,1006.7
2023-02-02T03:48:43.682Z,1006.8
2023-02-02T03:49:43.697Z,1006.8
2023-02-02T03:50:43.705Z,1006.8
2023-02-02T03:51:43.735Z,1006.9
2023-02-02T03:52:43.717Z,1006.9
2023-02-02T03:53:43.877Z,1006.8
2023-02-02T03:54:43.732Z,1007.0
2023-02-02T03:55:43.751Z,1006.8
2023-02-02T03:56:43.748Z,1006.9
2023-02-02T03:57:43.761Z,1006.9
2023-02-02T03:58:43.785Z,1007.0
2023-02-02T03:59:43.778Z,1007.0
2023-02-02T04:00:43.792Z,1007.0
2023-02-02T04:01:43.970Z,1007.1
2023-02-02T04:02:43.901Z,1007.2
2023-02-02T04:03:43.858Z,1007.2
2023-02-02T04:04:43.832Z,1007.1
2023-02-02T04:05:43.838Z,1007.2
2023-02-02T04:06:43.847Z,1007.1
2023-02-02T04:07:43.873Z,1007.1
2023-02-02T04:08:43.864Z,1007.2
2023-02-02T04:09:43.868Z,1007.2
2023-02-02T04:10:43.885Z,1007.2
2023-02-02T04:11:43.897Z,1007.2
2023-02-02T04:12:43.902Z,1007.2
2023-02-02T04:13:43.919Z,1007.3
2023-02-02T04:14:43.914Z,1007.4
2023-02-02T04:15:43.992Z,1007.5
2023-02-02T04:16:43.937Z,1007.6
2023-02-02T04:17:43.942Z,1007.5
2023-02-02T04:18:44.044Z,1007.5
2023-02-02T04:19:43.955Z,1007.5
2023-02-02T04:20:43.991Z,1007.5
2023-02-02T04:21:43.977Z,1007.5
2023-02-02T04:22:43.990Z,1007.5
2023-02-02T04:23:44.027Z,1007.4
2023-02-02T04:24:44.007Z,1007.6
2023-02-02T04:25:44.002Z,1007.5
2023-02-02T04:26:44.143Z,1007.9
2023-02-02T04:27:44.066Z,1007.5
2023-02-02T04:28:44.032Z,1007.5
2023-02-02T04:29:44.035Z,1007.5
2023-02-02T04:30:44.186Z,1007.5
2023-02-02T04:31:44.153Z,1007.5
2023-02-02T04:32:44.059Z,1007.5
2023-02-02T04:33:44.083Z,1007.6
2023-02-02T04:34:44.074Z,1007.5
2023-02-02T04:35:44.086Z,1007.5
2023-02-02T04:36:44.138Z,1007.6
2023-02-02T04:37:44.107Z,1007.6
2023-02-02T04:38:44.118Z,1007.6
2023-02-02T04:39:44.120Z,1007.6
2023-02-02T04:40:44.123Z,1007.6
2023-02-02T04:41:44.129Z,1007.6
2023-02-02T04:42:44.140Z,1007.6
2023-02-02T04:43:44.141Z,1007.7
2023-02-02T04:44:44.149Z,1007.6
2023-02-02T04:45:44.224Z,1007.6
2023-02-02T04:46:44.168Z,1007.7
2023-02-02T04:47:44.170Z,1007.6
2023-02-02T04:48:44.180Z,1007.7
2023-02-02T04:49:44.190Z,1007.6
2023-02-02T04:50:44.220Z,1007.7
2023-02-02T04:51:44.199Z,1007.7
2023-02-02T04:52:44.216Z,1007.7
2023-02-02T04:53:44.226Z,1007.8
2023-02-02T04:54:44.241Z,1007.8
2023-02-02T04:55:44.267Z,1007.7
2023-02-02T04:56:44.243Z,1007.8
2023-02-02T04:57:44.260Z,1007.7
2023-02-02T04:58:44.280Z,1007.8
2023-02-02T04:59:44.281Z,1007.8
2023-02-02T05:00:44.371Z,1007.6
2023-02-02T05:01:44.289Z,1007.7
2023-02-02T05:02:44.307Z,1007.9
2023-02-02T05:03:44.314Z,1008.0
2023-02-02T05:04:44.401Z,1008.0
2023-02-02T05:05:44.334Z,1008.0
2023-02-02T05:06:44.347Z,1008.0
2023-02-02T05:07:44.357Z,1008.0
2023-02-02T05:08:44.398Z,1007.9
2023-02-02T05:09:44.375Z,1008.0
2023-02-02T05:10:44.377Z,1007.8
2023-02-02T05:11:44.403Z,1007.9
2023-02-02T05:12:44.398Z,1008.0
2023-02-02T05:13:44.408Z,1007.9
2023-02-02T05:14:44.420Z,1007.8
2023-02-02T05:15:44.418Z,1008.0
2023-02-02T05:16:44.538Z,1007.9
2023-02-02T05:17:44.436Z,1008.0
2023-02-02T05:18:44.447Z,1008.1
2023-02-02T05:19:44.467Z,1008.0
2023-02-02T05:20:44.462Z,1007.9
2023-02-02T05:21:44.471Z,1007.9
2023-02-02T05:22:44.477Z,1007.9
2023-02-02T05:23:44.496Z,1007.9
2023-02-02T05:24:44.579Z,1008.0
2023-02-02T05:25:44.503Z,1007.9
2023-02-02T05:26:44.650Z,1007.9
2023-02-02T05:27:44.524Z,1008.0
2023-02-02T05:28:44.545Z,1008.0
2023-02-02T05:29:44.544Z,1008.0
2023-02-02T05:30:44.599Z,1008.0
2023-02-02T05:31:44.672Z,1007.9
2023-02-02T05:32:44.561Z,1008.0
2023-02-02T05:33:44.574Z,1008.0
2023-02-02T05:34:44.576Z,1008.0
2023-02-02T05:35:44.589Z,1008.0
2023-02-02T05:36:44.603Z,1008.1
2023-02-02T05:37:44.605Z,1008.1
2023-02-02T05:38:44.630Z,1008.1
2023-02-02T05:39:44.681Z,1008.1
2023-02-02T05:40:44.651Z,1008.2
2023-02-02T05:41:44.646Z,1008.2
2023-02-02T05:42:44.654Z,1008.1
2023-02-02T05:43:44.676Z,1008.1
2023-02-02T05:44:44.669Z,1008.2
2023-02-02T05:45:44.750Z,1008.1
2023-02-02T05:46:44.679Z,1008.2
2023-02-02T05:47:44.694Z,1008.2
2023-02-02T05:48:44.706Z,1008.2
2023-02-02T05:49:44.708Z,1008.2
2023-02-02T05:50:44.741Z,1008.2
2023-02-02T05:51:44.723Z,1008.2
2023-02-02T05:52:44.729Z,1008.2
2023-02-02T05:53:44.740Z,1008.4
2023-02-02T05:54:44.775Z,1008.3
2023-02-02T05:55:44.764Z,1008.3
2023-02-02T05:56:44.765Z,1008.3
2023-02-02T05:57:44.784Z,1008.4
2023-02-02T05:58:44.787Z,1008.4
2023-02-02T05:59:44.823Z,1008.4
2023-02-02T06:00:44.828Z,1008.4
2023-02-02T06:01:44.799Z,1008.4
2023-02-02T06:02:44.901Z,1008.4
2023-02-02T06:03:45.132Z,1008.5
2023-02-02T06:04:44.819Z,1008.4
2023-02-02T06:05:44.836Z,1008.4
2023-02-02T06:06:44.848Z,1008.5
2023-02-02T06:07:44.852Z,1008.5
2023-02-02T06:08:44.855Z,1008.5
2023-02-02T06:09:44.868Z,1008.5
2023-02-02T06:10:44.892Z,1008.6
2023-02-02T06:11:44.903Z,1008.4
2023-02-02T06:12:44.894Z,1008.6
2023-02-02T06:13:46.367Z,1008.5
2023-02-02T06:14:44.918Z,1008.6
2023-02-02T06:15:45.011Z,1008.5
2023-02-02T06:16:44.935Z,1008.6
2023-02-02T06:17:44.979Z,1008.6
2023-02-02T06:18:44.951Z,1008.6
2023-02-02T06:19:44.955Z,1008.6
2023-02-02T06:20:44.969Z,1008.7
2023-02-02T06:21:44.975Z,1008.7
2023-02-02T06:22:44.992Z,1008.7
2023-02-02T06:23:45.021Z,1008.7
2023-02-02T06:24:45.005Z,1008.8
2023-02-02T06:25:45.029Z,1008.8
2023-02-02T06:26:45.087Z,1008.9
2023-02-02T06:27:45.035Z,1008.8
2023-02-02T06:28:45.060Z,1008.8
2023-02-02T06:29:45.057Z,1008.9
2023-02-02T06:30:45.333Z,1008.7
2023-02-02T06:31:45.360Z,1009.0
2023-02-02T06:32:45.090Z,1008.8
2023-02-02T06:33:45.098Z,1008.9
2023-02-02T06:34:45.100Z,1008.8
2023-02-02T06:35:45.118Z,1008.9
2023-02-02T06:36:45.124Z,1008.9
2023-02-02T06:37:45.134Z,1008.8
2023-02-02T06:38:45.155Z,1008.9
2023-02-02T06:39:45.165Z,1009.0
2023-02-02T06:40:45.177Z,1009.0
2023-02-02T06:41:45.179Z,1009.0
2023-02-02T06:42:45.206Z,1009.0
2023-02-02T06:43:45.204Z,1009.0
2023-02-02T06:44:45.218Z,1009.1
2023-02-02T06:45:45.235Z,1009.0
2023-02-02T06:46:45.230Z,1009.0
2023-02-02T06:47:45.236Z,1009.0
2023-02-02T06:48:45.248Z,1009.1
2023-02-02T06:49:45.264Z,1009.3
2023-02-02T06:50:45.275Z,1009.1
2023-02-02T06:51:45.290Z,1009.2
2023-02-02T06:52:45.289Z,1009.2
2023-02-02T06:53:45.304Z,1009.2
2023-02-02T06:54:45.316Z,1009.2
2023-02-02T06:55:45.328Z,1009.3
2023-02-02T06:56:45.347Z,1009.2
2023-02-02T06:57:45.347Z,1009.2
2023-02-02T06:58:45.361Z,1009.4
2023-02-02T06:59:45.363Z,1009.3
2023-02-02T07:00:45.372Z,1009.3
2023-02-02T07:01:45.485Z,1009.3
2023-02-02T07:02:45.766Z,1009.3
2023-02-02T07:03:45.397Z,1009.3
2023-02-02T07:04:45.408Z,1009.3
2023-02-02T07:05:45.440Z,1009.3
2023-02-02T07:06:45.423Z,1009.3
2023-02-02T07:07:45.437Z,1009.3
2023-02-02T07:08:59.365Z,1009.4
2023-02-02T07:09:45.474Z,1009.3
2023-02-02T07:11:09.551Z,1009.5
2023-02-02T07:11:45.710Z,1009.4
2023-02-02T07:12:45.486Z,1009.4
2023-02-02T07:13:45.517Z,1009.4
2023-02-02T07:14:45.508Z,1009.4
2023-02-02T07:15:45.673Z,1009.5
2023-02-02T07:16:45.518Z,1009.4
2023-02-02T07:17:45.533Z,1009.5
2023-02-02T07:18:45.550Z,1009.5
2023-02-02T07:19:45.551Z,1009.5
2023-02-02T07:20:45.559Z,1009.6
2023-02-02T07:21:45.590Z,1009.5
2023-02-02T07:22:45.565Z,1009.5
2023-02-02T07:23:45.583Z,1009.6
2023-02-02T07:24:45.646Z,1009.6
2023-02-02T07:25:45.641Z,1009.6
2023-02-02T07:26:45.739Z,1009.6
2023-02-02T07:27:45.619Z,1009.7
2023-02-02T07:28:45.627Z,1009.6
2023-02-02T07:29:45.642Z,1009.7
2023-02-02T07:30:45.711Z,1009.7
2023-02-02T07:31:45.937Z,1009.7
2023-02-02T07:32:45.660Z,1009.7
2023-02-02T07:33:45.727Z,1009.8
2023-02-02T07:34:45.675Z,1009.8
2023-02-02T07:35:45.692Z,1009.8
2023-02-02T07:36:45.708Z,1009.8
2023-02-02T07:37:45.702Z,1009.9
2023-02-02T07:38:45.751Z,1009.9
2023-02-02T07:39:45.715Z,1010.0
2023-02-02T07:40:45.736Z,1010.0
2023-02-02T07:41:45.749Z,1009.9
2023-02-02T07:42:46.567Z,1009.8
2023-02-02T07:43:45.762Z,1009.9
2023-02-02T07:44:45.776Z,1009.9
2023-02-02T07:45:45.779Z,1010.0
2023-02-02T07:46:46.030Z,1010.0
2023-02-02T07:47:47.153Z,1010.1
2023-02-02T07:48:45.863Z,1010.0
2023-02-02T07:49:45.827Z,1009.9
2023-02-02T07:50:45.847Z,1010.0
2023-02-02T07:51:48.004Z,1010.1
2023-02-02T07:52:45.857Z,1010.1
2023-02-02T07:53:45.921Z,1010.1
2023-02-02T07:54:45.920Z,1010.2
2023-02-02T07:55:45.893Z,1010.1
2023-02-02T07:56:45.908Z,1010.1
2023-02-02T07:57:45.911Z,1010.2
2023-02-02T07:58:45.925Z,1010.2
2023-02-02T07:59:45.932Z,1010.3
2023-02-02T08:00:46.094Z,1010.2
2023-02-02T08:01:46.075Z,1010.2
2023-02-02T08:02:46.051Z,1010.2
2023-02-02T08:03:46.015Z,1010.3
2023-02-02T08:04:45.971Z,1010.3
2023-02-02T08:05:45.987Z,1010.3
2023-02-02T08:06:45.988Z,1010.4
2023-02-02T08:07:45.999Z,1010.3
2023-02-02T08:08:46.001Z,1010.3
2023-02-02T08:09:46.024Z,1010.3
2023-02-02T08:10:46.028Z,1010.3
2023-02-02T08:11:46.044Z,1010.3
2023-02-02T08:12:46.072Z,1010.4
2023-02-02T08:13:46.061Z,1010.4
2023-02-02T08:14:46.072Z,1010.4
2023-02-02T08:15:46.093Z,1010.4
2023-02-02T08:16:46.096Z,1010.3
2023-02-02T08:17:46.103Z,1010.4
2023-02-02T08:18:46.097Z,1010.5
2023-02-02T08:19:46.112Z,1010.5
2023-02-02T08:20:46.145Z,1010.4
2023-02-02T08:21:46.123Z,1010.5
2023-02-02T08:22:46.132Z,1010.5
2023-02-02T08:23:46.148Z,1010.5
2023-02-02T08:24:46.154Z,1010.5
2023-02-02T08:25:46.161Z,1010.5
2023-02-02T08:26:46.259Z,1010.5
2023-02-02T08:27:46.183Z,1010.5
2023-02-02T08:28:46.196Z,1010.6
2023-02-02T08:29:46.240Z,1010.6
2023-02-02T08:30:46.502Z,1010.6
2023-02-02T08:31:46.429Z,1010.7
2023-02-02T08:32:46.252Z,1010.8
2023-02-02T08:33:46.256Z,1010.6
2023-02-02T08:35:02.078Z,1010.5
2023-02-02T08:35:46.251Z,1010.7
2023-02-02T08:36:46.282Z,1010.7
2023-02-02T08:37:46.282Z,1010.7
2023-02-02T08:38:46.329Z,1010.7
2023-02-02T08:39:46.301Z,1010.7
2023-02-02T08:40:46.337Z,1010.7
2023-02-02T08:41:46.390Z,1010.7
2023-02-02T08:42:46.341Z,1010.7
2023-02-02T08:43:46.378Z,1010.8
2023-02-02T08:46:00.956Z,1010.8
2023-02-02T08:46:01.030Z,1010.8
2023-02-02T08:46:46.447Z,1010.7
2023-02-02T08:47:46.362Z,1010.8
2023-02-02T08:48:46.358Z,1010.8
2023-02-02T08:49:46.372Z,1010.7
2023-02-02T08:50:46.396Z,1010.8
2023-02-02T08:51:46.392Z,1010.8
2023-02-02T08:52:46.391Z,1010.9
2023-02-02T08:53:46.417Z,1010.7
2023-02-02T08:54:46.442Z,1010.7
2023-02-02T08:55:46.429Z,1010.8
2023-02-02T08:56:46.440Z,1010.8
2023-02-02T08:57:46.458Z,1010.9
2023-02-02T08:58:46.466Z,1010.9
2023-02-02T08:59:46.463Z,1010.8
2023-02-02T09:00:46.596Z,1010.9
2023-02-02T09:01:46.510Z,1010.9
2023-02-02T09:02:46.493Z,1010.9
2023-02-02T09:03:46.509Z,1011.0
2023-02-02T09:04:46.518Z,1010.9
2023-02-02T09:05:46.542Z,1011.0
2023-02-02T09:06:46.550Z,1011.0
2023-02-02T09:07:46.546Z,1011.0
2023-02-02T09:08:46.651Z,1011.1
2023-02-02T09:09:46.567Z,1011.1
2023-02-02T09:10:46.580Z,1011.4
2023-02-02T09:11:46.593Z,1011.1
2023-02-02T09:12:46.601Z,1011.1
2023-02-02T09:13:46.626Z,1011.1
2023-02-02T09:14:46.658Z,1011.1
2023-02-02T09:15:46.642Z,1011.2
2023-02-02T09:16:46.791Z,1011.2
2023-02-02T09:17:46.648Z,1011.1
2023-02-02T09:18:46.659Z,1011.2
2023-02-02T09:19:46.671Z,1011.2
2023-02-02T09:20:46.681Z,1011.2
2023-02-02T09:21:46.702Z,1011.2
2023-02-02T09:22:46.700Z,1011.3
2023-02-02T09:23:46.716Z,1011.2
2023-02-02T09:24:46.723Z,1011.3
2023-02-02T09:25:46.770Z,1011.3
2023-02-02T09:26:46.839Z,1011.4
2023-02-02T09:27:46.794Z,1011.3
2023-02-02T09:28:46.780Z,1011.4
2023-02-02T09:29:46.781Z,1011.5
2023-02-02T09:30:46.826Z,1011.5
2023-02-02T09:31:47.005Z,1011.4
2023-02-02T09:32:46.817Z,1011.5
2023-02-02T09:33:46.840Z,1011.5
2023-02-02T09:34:46.852Z,1011.5
2023-02-02T09:35:46.857Z,1011.5
2023-02-02T09:36:46.875Z,1011.6
2023-02-02T09:37:46.860Z,1011.6
2023-02-02T09:38:46.882Z,1011.6
2023-02-02T09:39:46.905Z,1011.5
2023-02-02T09:40:46.901Z,1011.6
2023-02-02T09:41:46.921Z,1011.7
2023-02-02T09:42:46.936Z,1011.7
2023-02-02T09:43:46.936Z,1011.7
2023-02-02T09:44:46.946Z,1011.7
2023-02-02T09:45:47.036Z,1011.7
2023-02-02T09:46:46.961Z,1011.7
2023-02-02T09:47:46.969Z,1011.8
2023-02-02T09:48:46.985Z,1011.7
2023-02-02T09:49:46.995Z,1011.8
2023-02-02T09:50:47.075Z,1011.8
2023-02-02T09:51:47.016Z,1011.9
2023-02-02T09:52:47.018Z,1012.0
2023-02-02T09:53:56.213Z,1011.9
2023-02-02T09:54:47.036Z,1011.9
2023-02-02T09:55:47.048Z,1011.8
2023-02-02T09:56:47.076Z,1011.9
2023-02-02T09:57:47.087Z,1011.8
2023-02-02T09:58:47.078Z,1011.9
2023-02-02T09:59:47.091Z,1011.9
2023-02-02T10:00:47.108Z,1011.8
2023-02-02T10:01:47.118Z,1011.9
2023-02-02T10:02:47.128Z,1011.9
2023-02-02T10:03:47.253Z,1012.0
2023-02-02T10:04:47.156Z,1012.0
2023-02-02T10:05:47.152Z,1012.1
2023-02-02T10:06:47.180Z,1012.0
2023-02-02T10:07:47.176Z,1011.9
2023-02-02T10:08:47.196Z,1012.0
2023-02-02T10:09:47.190Z,1012.0
2023-02-02T10:10:47.203Z,1012.0
2023-02-02T10:11:47.216Z,1012.0
2023-02-02T10:12:47.361Z,1012.0
2023-02-02T10:13:47.219Z,1012.2
2023-02-02T10:14:47.324Z,1012.2
2023-02-02T10:15:47.290Z,1012.1
2023-02-02T10:16:47.250Z,1012.1
2023-02-02T10:17:47.275Z,1012.0
2023-02-02T10:18:47.278Z,1012.3
2023-02-02T10:19:47.279Z,1012.2
2023-02-02T10:20:47.309Z,1012.1
2023-02-02T10:21:47.306Z,1012.2
2023-02-02T10:22:47.315Z,1012.2
2023-02-02T10:23:47.318Z,1012.2
2023-02-02T10:24:47.336Z,1012.2
2023-02-02T10:25:47.327Z,1012.2
2023-02-02T10:26:47.654Z,1012.3
2023-02-02T10:27:47.355Z,1012.2
2023-02-02T10:28:47.370Z,1012.3
2023-02-02T10:29:49.682Z,1012.2
2023-02-02T10:30:47.674Z,1012.2
2023-02-02T10:31:47.783Z,1012.3
2023-02-02T10:32:47.400Z,1012.4
2023-02-02T10:33:47.401Z,1012.3
2023-02-02T10:34:47.405Z,1012.4
2023-02-02T10:35:47.417Z,1012.2
2023-02-02T10:36:47.441Z,1012.4
2023-02-02T10:37:47.456Z,1012.7
2023-02-02T10:38:47.456Z,1012.5
2023-02-02T10:39:47.530Z,1012.6
2023-02-02T10:40:47.459Z,1012.6
2023-02-02T10:41:47.469Z,1012.8
2023-02-02T10:42:47.471Z,1012.7
2023-02-02T10:43:47.505Z,1012.7
2023-02-02T10:44:47.486Z,1012.8
2023-02-02T10:45:47.529Z,1012.7
2023-02-02T10:46:47.523Z,1012.8
2023-02-02T10:47:47.538Z,1012.7
2023-02-02T10:48:47.562Z,1012.8
2023-02-02T10:49:55.838Z,1012.8
2023-02-02T10:50:47.596Z,1012.8
2023-02-02T10:51:47.596Z,1012.8
2023-02-02T10:52:47.583Z,1012.9
2023-02-02T10:53:47.593Z,1012.9
2023-02-02T10:54:58.817Z,1012.9
2023-02-02T10:55:47.620Z,1012.8
2023-02-02T10:56:47.715Z,1012.8
2023-02-02T10:57:47.670Z,1012.8
2023-02-02T10:58:47.677Z,1012.8
2023-02-02T10:59:47.666Z,1012.8
2023-02-02T11:00:47.671Z,1012.9
2023-02-02T11:01:47.796Z,1012.8
2023-02-02T11:02:47.828Z,1012.9
2023-02-02T11:03:47.701Z,1012.8
2023-02-02T11:04:47.691Z,1012.9
2023-02-02T11:05:47.724Z,1012.9
2023-02-02T11:06:47.706Z,1012.9
2023-02-02T11:07:47.736Z,1013.0
2023-02-02T11:08:47.760Z,1012.9
2023-02-02T11:09:47.753Z,1012.9
2023-02-02T11:10:47.770Z,1012.9
2023-02-02T11:11:48.048Z,1012.9
2023-02-02T11:12:47.780Z,1012.9
2023-02-02T11:13:47.801Z,1013.0
2023-02-02T11:14:47.820Z,1012.9
2023-02-02T11:15:47.913Z,1012.9
2023-02-02T11:16:47.898Z,1012.9
2023-02-02T11:17:47.830Z,1013.0
2023-02-02T11:18:47.842Z,1012.9
2023-02-02T11:19:47.855Z,1012.9
2023-02-02T11:20:47.861Z,1012.9
2023-02-02T11:21:47.872Z,1012.9
2023-02-02T11:22:47.897Z,1012.9
2023-02-02T11:23:48.929Z,1013.0
2023-02-02T11:24:47.907Z,1012.9
2023-02-02T11:25:47.912Z,1012.9
2023-02-02T11:26:48.056Z,1013.1
2023-02-02T11:27:47.923Z,1012.9
2023-02-02T11:28:47.931Z,1013.0
2023-02-02T11:29:47.950Z,1013.0
2023-02-02T11:30:48.064Z,1013.0
2023-02-02T11:31:48.156Z,1013.1
2023-02-02T11:32:48.000Z,1013.0
2023-02-02T11:33:47.983Z,1013.1
2023-02-02T11:34:48.001Z,1013.0
2023-02-02T11:35:48.000Z,1013.0
2023-02-02T11:36:47.996Z,1013.0
2023-02-02T11:37:48.013Z,1013.0
2023-02-02T11:38:48.041Z,1013.1
2023-02-02T11:39:48.032Z,1013.1
2023-02-02T11:40:48.032Z,1013.1
2023-02-02T11:41:48.054Z,1013.0
2023-02-02T11:42:48.084Z,1013.0
2023-02-02T11:43:48.063Z,1013.0
2023-02-02T11:44:48.081Z,1013.0
2023-02-02T11:45:48.090Z,1013.0
2023-02-02T11:46:48.175Z,1013.0
2023-02-02T11:47:48.128Z,1013.0
2023-02-02T11:48:48.133Z,1013.1
2023-02-02T11:49:50.178Z,1013.0
2023-02-02T11:50:48.256Z,1013.1
2023-02-02T11:51:48.163Z,1013.1
2023-02-02T11:52:48.193Z,1013.1
2023-02-02T11:53:48.201Z,1013.2
2023-02-02T11:54:48.183Z,1013.1
2023-02-02T11:55:48.202Z,1013.2
2023-02-02T11:56:48.228Z,1013.2
2023-02-02T11:57:48.225Z,1013.2
2023-02-02T11:58:48.250Z,1013.2
2023-02-02T11:59:48.244Z,1013.1
2023-02-02T12:00:48.248Z,1013.1
2023-02-02T12:01:48.374Z,1013.2
2023-02-02T12:02:48.281Z,1013.2
2023-02-02T12:03:48.351Z,1013.2
2023-02-02T12:04:48.313Z,1013.2
2023-02-02T12:05:48.309Z,1013.1
2023-02-02T12:06:48.317Z,1013.2
2023-02-02T12:07:48.339Z,1013.1
2023-02-02T12:08:48.372Z,1013.2
2023-02-02T12:09:48.363Z,1013.2
2023-02-02T12:10:48.394Z,1013.1
2023-02-02T12:11:48.390Z,1013.0
2023-02-02T12:12:48.400Z,1013.1
2023-02-02T12:13:48.408Z,1013.1
2023-02-02T12:14:48.424Z,1013.2
2023-02-02T12:15:48.539Z,1013.2
2023-02-02T12:16:48.436Z,1013.1
2023-02-02T12:17:48.501Z,1013.1
2023-02-02T12:18:48.500Z,1013.2
2023-02-02T12:19:48.465Z,1013.2
2023-02-02T12:20:48.465Z,1013.2
2023-02-02T12:21:48.482Z,1013.3
2023-02-02T12:22:48.663Z,1013.2
2023-02-02T12:23:48.499Z,1013.3
2023-02-02T12:24:48.510Z,1013.2
2023-02-02T12:25:48.525Z,1013.3
2023-02-02T12:26:48.614Z,1013.3
2023-02-02T12:27:48.537Z,1013.3
2023-02-02T12:28:48.559Z,1013.3
2023-02-02T12:29:48.546Z,1013.4
2023-02-02T12:30:48.643Z,1013.3
2023-02-02T12:31:48.836Z,1013.4
2023-02-02T12:32:48.596Z,1013.4
2023-02-02T12:33:48.601Z,1013.4
2023-02-02T12:34:48.661Z,1013.3
2023-02-02T12:35:48.624Z,1013.4
2023-02-02T12:36:48.634Z,1013.4
2023-02-02T12:37:48.643Z,1013.3
2023-02-02T12:38:48.675Z,1013.4
2023-02-02T12:39:48.668Z,1013.3
2023-02-02T12:40:48.674Z,1013.3
2023-02-02T12:41:48.688Z,1013.3
2023-02-02T12:42:49.035Z,1013.4
2023-02-02T12:43:48.711Z,1013.4
2023-02-02T12:44:48.726Z,1013.3
2023-02-02T12:45:48.772Z,1013.3